Time;durP1;ratioP1;P1;durP2;ratioP2;P2;SDS_P1;SDS_P2;PMS_P1;PMS_P2;Temp;Humidity;BMP_temperature;BMP_pressure;BME280_temperature;BME280_humidity;BME280_pressure;Samples;Min_cycle;Max_cycle;Signal;HPM_P1;HPM_P2
2024/03/31 00:02:20;;;;;;;;;9.25;9.00;;;;;-143.90;63.46;74122.13;4778592;28;103148;-72
2024/03/31 00:04:49;;;;;;;;;5.75;5.25;;;;;-143.90;62.35;74113.84;4825660;28;109946;-71
2024/03/31 00:07:14;;;;;;;;;8.25;7.00;;;;;-143.90;62.08;74093.19;4856780;28;102201;-72
2024/03/31 00:09:40;;;;;;;;;14.75;13.25;;;;;-143.90;61.21;74072.50;4840390;28;102620;-71
2024/03/31 00:12:06;;;;;;;;;14.25;13.00;;;;;-143.90;61.28;74060.13;4857077;28;102804;-70
2024/03/31 00:14:32;;;;;;;;;22.25;20.00;;;;;-143.90;60.98;74047.72;4840594;28;104448;-71
2024/03/31 00:17:00;;;;;;;;;25.75;20.25;;;;;-143.90;58.60;74037.38;4838055;28;102852;-70
2024/03/31 00:19:26;;;;;;;;;24.00;22.50;;;;;-143.90;58.40;74016.72;4837821;28;102671;-72
2024/03/31 00:21:52;;;;;;;;;22.50;19.50;;;;;-143.90;57.88;74002.25;4842267;28;102677;-72
2024/03/31 00:24:17;;;;;;;;;19.25;15.25;;;;;-143.90;57.92;73993.97;4840641;28;104520;-71
2024/03/31 00:26:43;;;;;;;;;14.00;13.50;;;;;-143.90;58.47;73989.84;4851471;28;102590;-71
2024/03/31 00:29:08;;;;;;;;;8.50;7.75;;;;;-143.90;56.88;73985.72;4839211;28;102480;-71
2024/03/31 00:31:34;;;;;;;;;7.75;7.50;;;;;-143.90;57.23;73969.19;4856803;28;103508;-71
2024/03/31 00:33:59;;;;;;;;;12.50;11.00;;;;;-143.90;56.97;73956.78;4858717;28;103007;-71
2024/03/31 00:36:25;;;;;;;;;9.50;8.00;;;;;-143.90;56.19;73954.72;4841835;28;102645;-71
2024/03/31 00:38:51;;;;;;;;;30.50;25.00;;;;;-143.90;56.33;73940.25;4834708;28;102204;-73
2024/03/31 00:41:16;;;;;;;;;32.75;28.00;;;;;-143.90;55.98;73929.91;4863231;28;102626;-71
2024/03/31 00:43:42;;;;;;;;;23.00;22.25;;;;;-143.90;55.64;73925.78;4839646;28;104533;-71
2024/03/31 00:46:07;;;;;;;;;18.25;17.75;;;;;-143.90;55.52;73927.84;4839995;28;102559;-71
2024/03/31 00:48:34;;;;;;;;;12.75;12.00;;;;;-143.90;55.05;73927.84;4840888;28;103047;-72
2024/03/31 00:50:59;;;;;;;;;12.00;7.75;;;;;-143.90;55.34;73927.84;4836116;28;102121;-72
2024/03/31 00:53:25;;;;;;;;;7.00;6.00;;;;;-143.90;55.14;73927.84;4835172;28;104920;-72
2024/03/31 00:55:50;;;;;;;;;6.00;5.00;;;;;-143.90;55.79;73925.78;4846242;28;104349;-71
2024/03/31 00:58:16;;;;;;;;;3.00;3.00;;;;;-143.90;55.51;73927.84;4843554;28;102975;-72
2024/03/31 01:00:41;;;;;;;;;3.00;2.25;;;;;-143.90;56.13;73934.03;4826584;28;102890;-71
2024/03/31 01:03:07;;;;;;;;;3.00;3.00;;;;;-143.90;55.88;73931.97;4853885;28;104528;-71
2024/03/31 01:05:34;;;;;;;;;3.00;2.00;;;;;-143.90;56.01;73931.97;4853355;28;102775;-71
2024/03/31 01:08:00;;;;;;;;;1.25;1.25;;;;;-143.90;56.75;73934.03;4844792;28;102590;-70
2024/03/31 01:10:26;;;;;;;;;0.50;0.50;;;;;-143.90;56.99;73931.97;4850487;28;102133;-71
2024/03/31 01:12:52;;;;;;;;;2.25;2.00;;;;;-143.90;56.17;73931.97;4829739;28;104656;-71
2024/03/31 01:15:18;;;;;;;;;2.00;1.25;;;;;-143.90;55.64;73923.72;4833703;28;102145;-71
2024/03/31 01:17:44;;;;;;;;;3.00;3.00;;;;;-143.90;55.16;73915.44;4856120;28;101944;-71
2024/03/31 01:20:10;;;;;;;;;1.50;1.00;;;;;-143.90;55.05;73903.03;4861278;28;102564;-71
2024/03/31 01:22:37;;;;;;;;;3.00;2.00;;;;;-143.90;54.46;73886.50;4855415;28;104573;-72
2024/03/31 01:25:04;;;;;;;;;2.00;1.00;;;;;-143.90;53.83;73865.84;4843536;28;102214;-71
2024/03/31 01:27:30;;;;;;;;;2.00;1.50;;;;;-143.90;53.53;73855.50;4859106;28;102572;-71
2024/03/31 01:29:55;;;;;;;;;2.25;2.00;;;;;-143.90;53.61;73845.16;4847113;28;103090;-72
2024/03/31 01:32:21;;;;;;;;;2.75;1.00;;;;;-143.90;53.40;73834.84;4844005;28;104555;-72
2024/03/31 01:34:46;;;;;;;;;2.00;1.00;;;;;-143.90;52.97;73824.50;4838511;28;102745;-72
2024/03/31 01:37:12;;;;;;;;;2.25;1.25;;;;;-143.90;53.03;73818.31;4844752;28;102638;-71
2024/03/31 01:39:38;;;;;;;;;1.00;0.00;;;;;-143.90;52.68;73812.09;4846332;28;102305;-71
2024/03/31 01:42:03;;;;;;;;;2.00;1.00;;;;;-143.90;52.85;73812.09;4846339;28;104587;-72
2024/03/31 01:44:29;;;;;;;;;1.00;1.00;;;;;-143.90;52.58;73812.09;4846527;28;102525;-71
2024/03/31 01:46:55;;;;;;;;;0.25;0.25;;;;;-143.90;52.01;73810.03;4835679;28;104337;-72
2024/03/31 01:49:20;;;;;;;;;1.00;1.00;;;;;-143.90;52.14;73803.84;4849904;28;102585;-72
2024/03/31 01:51:46;;;;;;;;;1.00;0.00;;;;;-143.90;52.63;73803.84;4841466;28;108836;-72
2024/03/31 01:54:11;;;;;;;;;2.00;0.25;;;;;-143.90;52.24;73807.97;4855536;28;102050;-71
2024/03/31 01:56:37;;;;;;;;;1.75;0.00;;;;;-143.90;52.06;73799.69;4839153;28;104155;-72
2024/03/31 01:59:03;;;;;;;;;1.00;1.00;;;;;-143.90;52.06;73799.69;4837296;28;102602;-72
2024/03/31 02:01:29;;;;;;;;;1.50;0.00;;;;;-143.90;52.25;73801.78;4850003;28;104488;-71
2024/03/31 02:03:54;;;;;;;;;1.00;1.00;;;;;-143.90;52.41;73803.84;4850182;28;103210;-72
2024/03/31 02:06:20;;;;;;;;;0.25;0.25;;;;;-143.90;52.58;73805.91;4846249;28;102124;-71
2024/03/31 02:08:45;;;;;;;;;0.25;0.00;;;;;-143.90;52.85;73812.09;4835888;28;102223;-72
2024/03/31 02:11:11;;;;;;;;;0.00;0.00;;;;;-143.90;52.65;73820.38;4844636;28;104546;-71
2024/03/31 02:13:36;;;;;;;;;0.00;0.00;;;;;-143.90;53.58;73826.56;4843427;28;103516;-71
2024/03/31 02:16:02;;;;;;;;;3.25;2.00;;;;;-143.90;52.78;73828.63;4860995;28;102468;-72
2024/03/31 02:18:28;;;;;;;;;4.00;4.00;;;;;-143.90;53.03;73828.63;4844242;28;102533;-73
2024/03/31 02:20:55;;;;;;;;;3.00;2.75;;;;;-143.90;53.14;73828.63;4835441;28;104540;-72
2024/03/31 02:23:21;;;;;;;;;2.00;2.00;;;;;-143.90;53.41;73832.78;4862058;28;103575;-70
2024/03/31 02:25:46;;;;;;;;;0.50;0.00;;;;;-143.90;53.15;73838.97;4854661;28;102207;-71
2024/03/31 02:28:12;;;;;;;;;1.25;1.00;;;;;-143.90;53.40;73838.97;4846881;28;101871;-71
2024/03/31 02:30:38;;;;;;;;;1.25;1.00;;;;;-143.90;53.54;73834.84;4839240;28;104553;-71
2024/03/31 02:33:04;;;;;;;;;1.00;1.00;;;;;-143.90;54.07;73843.09;4840307;28;103988;-71
2024/03/31 02:35:30;;;;;;;;;2.00;0.50;;;;;-143.90;53.21;73836.91;4860667;28;102778;-72
2024/03/31 02:37:55;;;;;;;;;1.00;0.00;;;;;-143.90;53.97;73836.91;4846756;28;102393;-71
2024/03/31 02:40:21;;;;;;;;;4.00;1.00;;;;;-143.90;53.98;73838.97;4844657;28;104565;-71
2024/03/31 02:42:46;;;;;;;;;0.50;0.00;;;;;-143.90;54.29;73849.31;4834479;28;102787;-71
2024/03/31 02:45:12;;;;;;;;;0.00;0.00;;;;;-143.90;53.95;73845.16;4844121;28;102555;-72
2024/03/31 02:47:37;;;;;;;;;0.50;0.50;;;;;-143.90;54.29;73841.03;4843367;28;102617;-71
2024/03/31 02:50:03;;;;;;;;;0.00;0.00;;;;;-143.90;54.02;73832.78;4855799;28;104630;-71
2024/03/31 02:52:29;;;;;;;;;0.00;0.00;;;;;-143.90;53.75;73816.25;4858145;28;102451;-72
2024/03/31 02:54:54;;;;;;;;;1.00;1.00;;;;;-143.90;52.98;73799.69;4831647;28;102435;-72
2024/03/31 02:57:20;;;;;;;;;2.00;0.75;;;;;-143.90;52.97;73779.03;4842137;28;102228;-71
2024/03/31 02:59:46;;;;;;;;;2.00;1.00;;;;;-143.90;51.29;73750.09;4855285;28;105433;-70
2024/03/31 03:02:11;;;;;;;;;4.50;1.75;;;;;-143.90;51.42;73745.97;4837575;28;102515;-70
2024/03/31 03:04:37;;;;;;;;;1.75;0.75;;;;;-143.90;50.98;73727.38;4836988;28;103379;-70
2024/03/31 03:07:03;;;;;;;;;0.00;0.00;;;;;-143.90;51.31;73723.22;4854722;28;104763;-71
2024/03/31 03:09:28;;;;;;;;;3.00;1.00;;;;;-143.90;51.24;73721.16;4846296;28;104478;-71
2024/03/31 03:11:54;;;;;;;;;4.00;2.00;;;;;-143.90;50.29;73719.09;4859900;28;102099;-72
2024/03/31 03:14:20;;;;;;;;;1.25;1.00;;;;;-143.90;50.45;73710.84;4843195;28;101990;-71
2024/03/31 03:16:45;;;;;;;;;1.00;0.50;;;;;-143.90;50.20;73712.91;4837416;28;102216;-71
2024/03/31 03:19:11;;;;;;;;;1.00;1.00;;;;;-143.90;49.75;73706.69;4844350;28;106685;-71
2024/03/31 03:21:36;;;;;;;;;1.50;0.25;;;;;-143.90;50.37;73708.78;4844054;28;103125;-71
2024/03/31 03:24:02;;;;;;;;;1.50;0.50;;;;;-143.90;50.50;73714.97;4845300;28;102402;-71
2024/03/31 03:26:27;;;;;;;;;5.25;3.00;;;;;-143.90;50.65;73721.16;4841824;28;102410;-71
2024/03/31 03:28:53;;;;;;;;;1.75;1.50;;;;;-143.90;50.85;73719.09;4837138;28;104497;-71
2024/03/31 03:31:19;;;;;;;;;2.00;2.00;;;;;-143.90;50.94;73727.38;4858828;28;102557;-71
2024/03/31 03:33:47;;;;;;;;;0.00;0.00;;;;;-143.90;51.46;73729.44;4841596;28;102979;-72
2024/03/31 03:36:13;;;;;;;;;0.00;0.00;;;;;-143.90;50.87;73729.44;4861796;28;102354;-71
2024/03/31 03:38:39;;;;;;;;;0.00;0.00;;;;;-143.90;51.45;73739.78;4839444;28;104641;-71
2024/03/31 03:41:05;;;;;;;;;1.00;1.00;;;;;-143.90;52.36;73750.09;4844840;28;102665;-71
2024/03/31 03:43:33;;;;;;;;;0.50;0.00;;;;;-143.90;51.97;73756.31;4855741;28;102368;-71
2024/03/31 03:46:02;;;;;;;;;0.25;0.25;;;;;-143.90;52.36;73766.63;4843271;28;102526;-71
2024/03/31 03:48:28;;;;;;;;;1.50;0.00;;;;;-143.90;52.26;73762.50;4835688;28;103323;-71
2024/03/31 03:50:54;;;;;;;;;0.25;0.25;;;;;-143.90;52.07;73770.78;4830435;28;102656;-72
2024/03/31 03:53:20;;;;;;;;;2.00;1.00;;;;;-143.90;52.14;73764.56;4842197;28;104129;-71
2024/03/31 03:55:46;;;;;;;;;1.00;0.25;;;;;-143.90;51.44;73762.50;4860445;28;103831;-71
2024/03/31 03:58:12;;;;;;;;;1.50;1.00;;;;;-143.90;51.73;73750.09;4840665;28;104419;-71
2024/03/31 04:00:41;;;;;;;;;0.00;0.00;;;;;-143.90;51.73;73754.25;4849636;28;102449;-72
2024/03/31 04:03:07;;;;;;;;;1.00;1.00;;;;;-143.90;52.38;73754.25;4843047;28;102074;-71
2024/03/31 04:05:33;;;;;;;;;1.75;1.00;;;;;-143.90;52.31;73766.63;4845597;28;101956;-71
2024/03/31 04:07:59;;;;;;;;;1.00;1.00;;;;;-143.90;53.34;73770.78;4856854;28;107720;-71
2024/03/31 04:10:24;;;;;;;;;1.50;1.00;;;;;-143.90;52.77;73783.16;4844174;28;103078;-72
2024/03/31 04:12:50;;;;;;;;;1.00;1.00;;;;;-143.90;52.31;73793.50;4853752;28;102972;-70
2024/03/31 04:15:15;;;;;;;;;2.00;1.25;;;;;-143.90;52.68;73791.44;4860340;28;102450;-71
2024/03/31 04:17:41;;;;;;;;;2.00;1.25;;;;;-143.90;52.27;73795.56;4863244;28;106002;-71
2024/03/31 04:20:07;;;;;;;;;1.00;1.00;;;;;-143.90;52.18;73791.44;4861516;28;103811;-71
2024/03/31 04:22:33;;;;;;;;;1.00;1.00;;;;;-143.90;52.48;73791.44;4861391;28;102667;-71
2024/03/31 04:24:59;;;;;;;;;2.75;1.25;;;;;-143.90;51.90;73770.78;4835100;28;103070;-71
2024/03/31 04:27:25;;;;;;;;;1.75;1.00;;;;;-143.90;51.56;73766.63;4841393;28;104551;-72
2024/03/31 04:29:50;;;;;;;;;0.75;0.75;;;;;-143.90;51.51;73756.31;4864262;28;104288;-71
2024/03/31 04:32:16;;;;;;;;;2.00;0.25;;;;;-143.90;51.24;73745.97;4846121;28;102447;-71
2024/03/31 04:34:42;;;;;;;;;3.25;1.00;;;;;-143.90;51.45;73752.16;4851022;28;102637;-73
2024/03/31 04:37:07;;;;;;;;;2.00;1.75;;;;;-143.90;50.99;73745.97;4862723;28;104494;-72
2024/03/31 04:39:33;;;;;;;;;2.75;1.00;;;;;-143.90;51.10;73733.56;4864709;28;101959;-72
2024/03/31 04:41:58;;;;;;;;;3.75;1.75;;;;;-143.90;51.05;73729.44;4860309;28;102431;-72
2024/03/31 04:44:24;;;;;;;;;1.75;1.00;;;;;-143.90;50.70;73723.22;4845207;28;102576;-73
2024/03/31 04:46:50;;;;;;;;;3.25;2.75;;;;;-143.90;50.25;73721.16;4842489;28;104556;-71
2024/03/31 04:49:17;;;;;;;;;1.25;1.25;;;;;-143.90;50.25;73717.03;4861022;28;102074;-71
2024/03/31 04:51:42;;;;;;;;;2.00;2.00;;;;;-143.90;49.80;73712.91;4844197;28;102334;-72
2024/03/31 04:54:08;;;;;;;;;2.50;1.25;;;;;-143.90;49.92;73704.63;4851509;28;102326;-71
2024/03/31 04:56:34;;;;;;;;;2.00;1.00;;;;;-143.90;50.00;73706.69;4860232;28;104386;-71
2024/03/31 04:58:59;;;;;;;;;1.00;1.00;;;;;-143.90;50.10;73700.50;4832287;28;102434;-71
2024/03/31 05:01:25;;;;;;;;;1.00;1.00;;;;;-143.90;49.80;73706.69;4847372;28;102826;-72
2024/03/31 05:03:50;;;;;;;;;1.00;1.00;;;;;-143.90;50.33;73704.63;4864642;28;102262;-71
2024/03/31 05:06:16;;;;;;;;;1.00;1.00;;;;;-143.90;50.31;73698.44;4862298;28;104749;-71
2024/03/31 05:08:42;;;;;;;;;1.00;0.25;;;;;-143.90;50.13;73700.50;4851836;28;102432;-73
2024/03/31 05:11:07;;;;;;;;;0.75;0.75;;;;;-143.90;50.46;73700.50;4849640;28;101889;-71
2024/03/31 05:13:33;;;;;;;;;1.25;0.75;;;;;-143.90;50.38;73696.38;4847303;28;101979;-71
2024/03/31 05:16:07;;;;;;;;;1.00;1.00;;;;;-143.90;50.48;73692.25;4838435;28;104484;-71
2024/03/31 05:18:33;;;;;;;;;2.50;2.00;;;;;-143.90;50.18;73692.25;4846861;28;102254;-71
2024/03/31 05:21:01;;;;;;;;;3.00;3.00;;;;;-143.90;50.02;73675.69;4858151;28;102424;-71
2024/03/31 05:23:28;;;;;;;;;5.50;2.50;;;;;-143.90;49.82;73679.84;4850289;28;102652;-72
2024/03/31 05:25:55;;;;;;;;;1.50;1.25;;;;;-143.90;50.40;73679.84;4851573;28;104753;-71
2024/03/31 05:28:21;;;;;;;;;1.00;1.00;;;;;-143.90;49.97;73679.84;4864620;28;102028;-71
2024/03/31 05:30:47;;;;;;;;;3.00;2.25;;;;;-143.90;49.89;73683.97;4853924;28;102537;-71
2024/03/31 05:33:13;;;;;;;;;2.00;1.00;;;;;-143.90;51.17;73679.84;4863795;28;102197;-71
2024/03/31 05:35:43;;;;;;;;;4.75;4.00;;;;;-143.90;50.18;73679.84;4849479;28;104635;-70
2024/03/31 05:38:10;;;;;;;;;4.25;2.00;;;;;-143.90;49.96;73663.31;4851106;28;102017;-71
2024/03/31 05:40:37;;;;;;;;;2.00;1.50;;;;;-143.90;49.72;73657.09;4847249;28;102300;-71
2024/03/31 05:43:03;;;;;;;;;0.25;0.00;;;;;-143.90;50.15;73640.56;4844240;28;102156;-70
2024/03/31 05:45:28;;;;;;;;;2.50;2.00;;;;;-143.90;48.10;73632.31;4849181;28;104553;-70
2024/03/31 05:47:54;;;;;;;;;2.75;1.75;;;;;-143.90;48.77;73611.63;4865906;28;102558;-71
2024/03/31 05:50:20;;;;;;;;;2.00;1.00;;;;;-143.90;49.12;73590.97;4864207;28;102623;-71
2024/03/31 05:52:45;;;;;;;;;3.25;2.50;;;;;-143.90;47.81;73593.03;4841856;28;102348;-71
2024/03/31 05:55:11;;;;;;;;;2.75;2.00;;;;;-143.90;48.15;73584.78;4861675;28;104510;-70
2024/03/31 05:57:36;;;;;;;;;1.00;1.00;;;;;-143.90;48.53;73584.78;4851565;28;102090;-71
2024/03/31 06:00:02;;;;;;;;;1.50;1.50;;;;;-143.90;49.08;73588.91;4853989;28;102503;-72
2024/03/31 06:02:28;;;;;;;;;1.67;1.00;;;;;-143.90;48.58;73588.91;4865244;28;103165;-72
2024/03/31 06:04:57;;;;;;;;;1.00;1.00;;;;;-143.90;49.80;73590.97;4840576;28;104572;-70
2024/03/31 06:07:22;;;;;;;;;2.75;2.00;;;;;-143.90;48.67;73601.31;4846611;28;102003;-72
2024/03/31 06:09:48;;;;;;;;;0.67;0.00;;;;;-143.90;48.95;73590.97;4866966;28;102196;-71
2024/03/31 06:12:14;;;;;;;;;2.33;1.00;;;;;-143.90;48.58;73588.91;4849348;28;105207;-71
2024/03/31 06:14:39;;;;;;;;;1.00;1.00;;;;;-143.90;47.77;73570.31;4857712;28;104535;-72
2024/03/31 06:17:05;;;;;;;;;1.25;1.25;;;;;-143.90;47.87;73545.50;4845286;28;102247;-72
2024/03/31 06:19:31;;;;;;;;;1.00;1.00;;;;;-143.90;47.89;73512.44;4863367;28;102618;-71
2024/03/31 06:21:56;;;;;;;;;1.33;1.33;;;;;-143.90;46.65;73481.44;4849725;28;102519;-70
2024/03/31 06:24:22;;;;;;;;;2.00;2.00;;;;;-143.90;45.58;73446.31;4864132;28;104687;-70
2024/03/31 06:26:47;;;;;;;;;2.00;2.00;;;;;-143.90;44.20;73409.13;4853009;28;102487;-71
2024/03/31 06:29:13;;;;;;;;;2.00;2.00;;;;;-143.90;44.71;73388.44;4865872;28;102300;-71
2024/03/31 06:31:39;;;;;;;;;2.00;2.00;;;;;-143.90;43.32;73357.47;4861330;28;102116;-71
2024/03/31 06:34:05;;;;;;;;;1.00;1.00;;;;;-143.90;43.33;73330.59;4864798;28;105076;-71
2024/03/31 06:36:30;;;;;;;;;0.00;0.00;;;;;-143.90;42.74;73301.66;4850685;28;102711;-72
2024/03/31 06:38:56;;;;;;;;;2.00;1.33;;;;;-143.90;42.23;73281.00;4855365;28;103010;-72
2024/03/31 06:41:22;;;;;;;;;1.00;1.00;;;;;-143.90;42.07;73254.13;4849610;28;103161;-71
2024/03/31 06:43:48;;;;;;;;;2.00;1.00;;;;;-143.90;41.09;73225.19;4863018;28;104528;-72
2024/03/31 06:46:14;;;;;;;;;1.00;1.00;;;;;-143.90;41.36;73196.28;4847184;28;102605;-72
2024/03/31 06:48:39;;;;;;;;;1.00;1.00;;;;;-143.90;40.76;73185.94;4845930;28;102695;-72
2024/03/31 06:51:05;;;;;;;;;0.67;0.33;;;;;-143.90;40.69;73173.53;4850625;28;102542;-72
2024/03/31 06:53:30;;;;;;;;;1.00;1.00;;;;;-143.90;40.86;73154.94;4861770;28;104504;-72
2024/03/31 06:55:56;;;;;;;;;1.67;1.00;;;;;-143.90;41.10;73132.22;4844176;28;103402;-72
2024/03/31 06:58:22;;;;;;;;;1.00;0.00;;;;;-143.90;41.26;73105.34;4849612;28;102487;-71
2024/03/31 07:00:47;;;;;;;;;0.00;0.00;;;;;-143.90;40.65;73084.69;4854359;28;102389;-72
2024/03/31 07:03:13;;;;;;;;;1.67;1.00;;;;;-143.90;39.91;73080.56;4865155;28;104274;-72
2024/03/31 07:05:38;;;;;;;;;1.00;1.00;;;;;-143.90;39.15;73061.97;4847011;28;102203;-72
2024/03/31 07:08:04;;;;;;;;;1.33;1.33;;;;;-143.90;39.41;73051.63;4845462;28;102353;-72
2024/03/31 07:10:30;;;;;;;;;1.00;1.00;;;;;-143.90;39.43;73030.97;4851049;28;102497;-72
2024/03/31 07:12:55;;;;;;;;;1.67;1.67;;;;;-143.90;38.81;73010.31;4854295;28;104812;-73
2024/03/31 07:15:21;;;;;;;;;1.67;1.67;;;;;-143.90;38.31;72989.66;4863958;28;102004;-72
2024/03/31 07:17:48;;;;;;;;;0.00;0.00;;;;;-143.90;38.71;72977.25;4844548;28;101992;-72
2024/03/31 07:20:14;;;;;;;;;0.67;0.00;;;;;-143.90;38.71;72966.91;4847188;28;102268;-71
2024/03/31 07:22:40;;;;;;;;;1.00;1.00;;;;;-143.90;38.86;72960.72;4856704;28;104612;-72
2024/03/31 07:25:06;;;;;;;;;1.67;1.67;;;;;-143.90;37.65;72973.13;4841229;28;102403;-72
2024/03/31 07:27:31;;;;;;;;;2.00;1.00;;;;;-143.90;36.79;72968.97;4846105;28;102190;-72
2024/03/31 07:29:57;;;;;;;;;1.00;1.00;;;;;-143.90;35.87;72948.31;4858285;28;102254;-72
2024/03/31 07:32:23;;;;;;;;;2.00;1.00;;;;;-143.90;34.94;72944.19;4857955;28;104552;-71
2024/03/31 07:34:48;;;;;;;;;1.33;0.67;;;;;-143.90;35.47;72954.50;4855080;28;102348;-72
2024/03/31 07:37:14;;;;;;;;;1.33;0.67;;;;;-143.90;33.72;72968.97;4849156;28;102529;-73
2024/03/31 07:39:39;;;;;;;;;2.00;1.00;;;;;-143.90;34.99;72956.59;4849217;28;102346;-72
2024/03/31 07:42:05;;;;;;;;;1.33;0.67;;;;;-143.90;34.37;72948.31;4844263;28;104529;-72
2024/03/31 07:44:31;;;;;;;;;3.00;1.33;;;;;-143.90;34.90;72940.06;4845798;28;103961;-72
2024/03/31 07:46:56;;;;;;;;;0.67;0.67;;;;;-143.90;34.36;72942.13;4835727;28;102653;-72
2024/03/31 07:49:22;;;;;;;;;2.00;0.67;;;;;-143.90;34.20;72952.44;4864478;28;102534;-70
2024/03/31 07:51:47;;;;;;;;;2.00;1.33;;;;;-143.90;33.84;72973.13;4849217;28;104535;-71
2024/03/31 07:54:13;;;;;;;;;1.33;1.33;;;;;-143.90;34.02;72979.31;4846019;28;102303;-71
2024/03/31 07:56:38;;;;;;;;;6.67;1.67;;;;;-143.90;34.18;72989.66;4855927;28;103836;-71
2024/03/31 07:59:04;;;;;;;;;1.00;0.67;;;;;-143.90;33.64;73006.16;4845115;28;106249;-71
2024/03/31 08:01:29;;;;;;;;;1.00;0.67;;;;;-143.90;34.31;72997.91;4843222;28;104933;-71
2024/03/31 08:03:55;;;;;;;;;0.33;0.33;;;;;-143.90;34.75;72968.97;4857678;28;107686;-71
2024/03/31 08:06:21;;;;;;;;;1.33;1.00;;;;;-143.90;34.11;72958.66;4863493;28;102748;-71
2024/03/31 08:08:47;;;;;;;;;1.67;0.67;;;;;-143.90;34.02;72954.50;4845716;28;103548;-70
2024/03/31 08:11:12;;;;;;;;;0.67;0.67;;;;;-143.90;34.43;72940.06;4842906;28;104969;-71
2024/03/31 08:13:38;;;;;;;;;0.00;0.00;;;;;-143.90;33.59;72921.47;4845387;28;102477;-71
2024/03/31 08:16:04;;;;;;;;;1.00;1.00;;;;;-143.90;33.27;72913.19;4858147;28;103610;-71
2024/03/31 08:18:29;;;;;;;;;1.00;0.67;;;;;-143.90;33.16;72894.59;4845641;28;102498;-71
2024/03/31 08:20:55;;;;;;;;;1.33;1.33;;;;;-143.90;33.27;72886.34;4844682;28;104554;-71
2024/03/31 08:23:20;;;;;;;;;2.33;2.00;;;;;-143.90;33.06;72878.06;4846003;28;102392;-71
2024/03/31 08:25:52;;;;;;;;;1.00;1.00;;;;;-143.90;32.21;72873.94;4843819;28;102600;-71
2024/03/31 08:28:18;;;;;;;;;2.00;1.00;;;;;-143.90;32.65;72878.06;4848830;28;102682;-71
2024/03/31 08:30:46;;;;;;;;;2.00;1.00;;;;;-143.90;32.68;72876.00;4831777;28;104472;-71
2024/03/31 08:33:11;;;;;;;;;2.33;1.00;;;;;-143.90;32.77;72857.41;4835171;28;102589;-71
2024/03/31 08:35:38;;;;;;;;;2.00;2.00;;;;;-143.90;32.65;72842.94;4856430;28;102016;-72
2024/03/31 08:38:04;;;;;;;;;1.00;1.00;;;;;-143.90;32.31;72807.81;4841729;28;102660;-72
2024/03/31 08:40:35;;;;;;;;;2.00;1.00;;;;;-143.90;32.13;72793.34;4848762;28;104641;-72
2024/03/31 08:43:05;;;;;;;;;1.00;1.00;;;;;-143.90;32.17;72785.09;4847424;28;102643;-72
2024/03/31 08:45:31;;;;;;;;;1.33;1.00;;;;;-143.90;31.82;72780.97;4840625;28;102473;-72
2024/03/31 08:48:00;;;;;;;;;3.33;2.00;;;;;-143.90;31.80;72766.50;4832875;28;104650;-72
2024/03/31 08:50:26;;;;;;;;;1.00;1.00;;;;;-143.90;31.91;72754.09;4838421;28;104618;-73
2024/03/31 08:52:52;;;;;;;;;2.00;1.67;;;;;-143.90;32.79;72716.91;4827875;28;104931;-72
2024/03/31 08:55:18;;;;;;;;;2.00;1.00;;;;;-143.90;31.22;72696.25;4842547;28;103583;-72
2024/03/31 08:57:45;;;;;;;;;2.00;1.00;;;;;-143.90;30.95;72692.09;4841395;28;102545;-71
2024/03/31 09:00:11;;;;;;;;;3.00;2.00;;;;;-143.90;30.99;72687.97;4842632;28;104600;-72
2024/03/31 09:02:38;;;;;;;;;3.00;1.00;;;;;-143.90;30.61;72700.38;4837262;28;102036;-73
2024/03/31 09:05:04;;;;;;;;;4.33;1.33;;;;;-143.90;30.31;72723.09;4833754;28;102489;-71
2024/03/31 09:07:32;;;;;;;;;3.33;2.00;;;;;-143.90;30.61;72741.69;4846985;28;102338;-72
2024/03/31 09:09:58;;;;;;;;;2.00;2.00;;;;;-143.90;31.77;72733.44;4847733;28;104610;-71
2024/03/31 09:12:24;;;;;;;;;1.67;1.00;;;;;-143.90;31.29;72749.97;4861736;28;103433;-72
2024/03/31 09:14:50;;;;;;;;;2.33;1.00;;;;;-143.90;31.00;72741.69;4838073;28;102660;-71
2024/03/31 09:17:15;;;;;;;;;1.00;1.00;;;;;-143.90;30.69;72749.97;4849146;28;102652;-71
2024/03/31 09:19:41;;;;;;;;;3.00;1.00;;;;;-143.90;30.69;72747.91;4859759;28;104504;-72
2024/03/31 09:22:07;;;;;;;;;3.33;1.00;;;;;-143.90;30.56;72768.56;4844402;28;103075;-70
2024/03/31 09:24:33;;;;;;;;;1.67;1.67;;;;;-143.90;31.18;72766.50;4863437;28;102409;-71
2024/03/31 09:26:59;;;;;;;;;4.00;3.00;;;;;-143.90;30.95;72756.16;4835888;28;102513;-71
2024/03/31 09:29:26;;;;;;;;;2.00;1.67;;;;;-143.90;31.08;72747.91;4860223;28;104764;-71
2024/03/31 09:32:06;;;;;;;;;3.00;1.67;;;;;-143.90;30.98;72756.16;4846801;28;104376;-71
2024/03/31 09:34:31;;;;;;;;;2.00;1.67;;;;;-143.90;30.44;72749.97;4861001;28;103234;-71
2024/03/31 09:36:57;;;;;;;;;1.00;1.00;;;;;-143.90;30.36;72762.34;4838043;28;103976;-71
2024/03/31 09:39:23;;;;;;;;;4.00;2.00;;;;;-143.90;31.62;72758.22;4848128;28;104478;-71
2024/03/31 09:41:53;;;;;;;;;3.33;3.00;;;;;-143.90;30.32;72735.50;4845894;28;102595;-71
2024/03/31 09:44:19;;;;;;;;;3.00;2.33;;;;;-143.90;30.34;72704.50;4860389;28;102233;-70
2024/03/31 09:46:46;;;;;;;;;3.00;2.00;;;;;-143.90;29.83;72687.97;4855271;28;102486;-71
2024/03/31 09:49:18;;;;;;;;;1.00;1.00;;;;;-143.90;30.16;72673.50;4850129;28;106051;-71
2024/03/31 09:51:47;;;;;;;;;2.67;1.00;;;;;-143.90;29.53;72654.91;4847403;28;102534;-71
2024/03/31 09:54:22;;;;;;;;;2.00;1.00;;;;;-143.90;29.84;72640.47;4846070;28;102586;-70
2024/03/31 09:56:56;;;;;;;;;4.00;1.67;;;;;-143.90;29.37;72654.91;4851566;28;102363;-70
2024/03/31 09:59:24;;;;;;;;;2.00;1.00;;;;;-143.90;30.23;72654.91;4843683;28;108962;-70
2024/03/31 10:01:52;;;;;;;;;4.67;1.00;;;;;-143.90;30.23;72646.66;4860226;28;104584;-70
2024/03/31 10:04:38;;;;;;;;;2.00;1.00;;;;;-143.90;29.34;72650.78;4842590;28;102345;-71
2024/03/31 10:07:04;;;;;;;;;1.00;1.00;;;;;-143.90;29.86;72642.53;4840971;28;102046;-71
2024/03/31 10:09:30;;;;;;;;;3.00;2.00;;;;;-143.90;29.43;72626.00;4858857;28;104559;-71
2024/03/31 10:12:00;;;;;;;;;2.00;1.00;;;;;-143.90;29.42;72630.13;4849170;28;102830;-71
2024/03/31 10:14:26;;;;;;;;;3.00;2.00;;;;;-143.90;30.33;72615.66;4860210;28;102324;-72
2024/03/31 10:16:54;;;;;;;;;2.00;2.00;;;;;-143.90;30.08;72605.34;4836073;28;102772;-71
2024/03/31 10:19:21;;;;;;;;;3.00;2.33;;;;;-143.90;30.25;72609.47;4845556;28;102716;-72
2024/03/31 10:21:47;;;;;;;;;3.00;2.67;;;;;-143.90;28.12;72605.34;4859002;28;102575;-71
2024/03/31 10:24:14;;;;;;;;;4.00;2.00;;;;;-143.90;29.40;72601.19;4845592;28;102915;-72
2024/03/31 10:26:40;;;;;;;;;3.00;2.00;;;;;-143.90;28.48;72599.13;4843499;28;102565;-72
2024/03/31 10:29:08;;;;;;;;;8.00;2.00;;;;;-143.90;29.13;72586.75;4846195;28;105705;-72
2024/03/31 10:31:34;;;;;;;;;4.33;2.33;;;;;-143.90;28.55;72584.69;4861788;28;102596;-71
2024/03/31 10:34:00;;;;;;;;;4.67;3.00;;;;;-143.90;28.93;72564.00;4860626;28;103905;-71
2024/03/31 10:36:29;;;;;;;;;5.00;2.00;;;;;-143.90;28.68;72564.00;4861208;28;107476;-72
2024/03/31 10:38:55;;;;;;;;;7.33;5.33;;;;;-143.90;27.65;72584.69;4834111;28;109064;-72
2024/03/31 10:41:21;;;;;;;;;10.33;6.00;;;;;-143.90;27.42;72615.66;4846055;28;102466;-71
2024/03/31 10:43:47;;;;;;;;;9.67;6.00;;;;;-143.90;28.28;72605.34;4845202;28;103691;-71
2024/03/31 10:46:13;;;;;;;;;8.00;4.33;;;;;-143.90;28.58;72592.94;4860526;28;103479;-72
2024/03/31 10:48:39;;;;;;;;;7.33;3.67;;;;;-143.90;27.55;72592.94;4840383;28;104581;-70
2024/03/31 10:51:15;;;;;;;;;10.00;4.00;;;;;-143.90;28.38;72603.28;4843041;28;102726;-71
2024/03/31 10:53:41;;;;;;;;;6.00;4.00;;;;;-143.90;28.42;72584.69;4844887;28;102768;-72
2024/03/31 10:56:07;;;;;;;;;9.67;4.33;;;;;-143.90;27.98;72590.88;4860636;28;103251;-71
2024/03/31 10:58:33;;;;;;;;;6.67;3.67;;;;;-143.90;28.27;72566.09;4855886;28;106010;-70
2024/03/31 11:01:01;;;;;;;;;8.33;4.00;;;;;-143.90;27.35;72564.00;4836334;28;102638;-70
2024/03/31 11:03:31;;;;;;;;;9.67;6.00;;;;;-143.90;27.71;72568.16;4859558;28;102164;-70
2024/03/31 11:06:02;;;;;;;;;14.67;7.00;;;;;-143.90;27.34;72559.88;4864611;28;102087;-71